createdAt,value
2017-12-10T00:02:31.365Z,99670
2017-12-10T00:07:33.646Z,99662
2017-12-10T00:12:35.892Z,99648
2017-12-10T00:17:37.438Z,99641
2017-12-10T00:22:38.997Z,99635
2017-12-10T00:27:40.534Z,99632
2017-12-10T00:32:42.788Z,99627
2017-12-10T00:37:44.273Z,99614
2017-12-10T00:42:45.800Z,99602
2017-12-10T00:47:47.289Z,99590
2017-12-10T00:52:48.844Z,99581
2017-12-10T00:57:50.353Z,99571
2017-12-10T01:02:52.600Z,99548
2017-12-10T01:07:54.102Z,99542
2017-12-10T01:12:56.385Z,99527
2017-12-10T01:18:05.665Z,99522
2017-12-10T01:23:07.217Z,99521
2017-12-10T01:28:09.465Z,99503
2017-12-10T01:33:10.978Z,99501
2017-12-10T01:38:12.469Z,99498
2017-12-10T01:43:13.969Z,99488
2017-12-10T01:48:15.444Z,99478
2017-12-10T01:53:17.142Z,99470
2017-12-10T01:58:18.632Z,99456
2017-12-10T02:03:20.163Z,99451
2017-12-10T02:08:22.388Z,99433
2017-12-10T02:13:23.901Z,99435
2017-12-10T02:18:25.394Z,99425
2017-12-10T02:23:26.935Z,99400
2017-12-10T02:28:28.446Z,99391
2017-12-10T02:33:29.958Z,99394
2017-12-10T02:38:31.481Z,99376
2017-12-10T02:43:33.009Z,99374
2017-12-10T02:48:35.263Z,99355
2017-12-10T02:53:36.768Z,99340
2017-12-10T02:58:39.027Z,99330
2017-12-10T03:03:40.601Z,99314
2017-12-10T03:08:42.097Z,99316
2017-12-10T03:13:43.578Z,99288
2017-12-10T03:18:47.141Z,99285
2017-12-10T03:23:48.646Z,99267
2017-12-10T03:28:50.928Z,99260
2017-12-10T03:33:52.438Z,99256
2017-12-10T03:38:54.785Z,99232
2017-12-10T03:43:57.061Z,99209
2017-12-10T03:48:59.301Z,99217
2017-12-10T03:54:00.869Z,99208
2017-12-10T03:59:02.356Z,99191
2017-12-10T04:04:03.860Z,99171
2017-12-10T04:09:05.385Z,99165
2017-12-10T04:14:06.893Z,99143
2017-12-10T04:19:08.520Z,99130
2017-12-10T04:24:10.019Z,99133
2017-12-10T04:29:12.276Z,99142
2017-12-10T04:34:13.768Z,99126
2017-12-10T04:39:16.013Z,99113
2017-12-10T04:44:17.540Z,99096
2017-12-10T04:49:19.050Z,99093
2017-12-10T04:54:20.539Z,99073
2017-12-10T04:59:22.054Z,99068
2017-12-10T05:04:23.593Z,99063
2017-12-10T05:09:25.268Z,99054
2017-12-10T05:14:26.794Z,99043
2017-12-10T05:19:28.276Z,99024
2017-12-10T05:24:29.770Z,99000
2017-12-10T05:29:31.285Z,98986
2017-12-10T05:34:32.854Z,98975
2017-12-10T05:39:34.369Z,98953
2017-12-10T05:44:35.923Z,98940
2017-12-10T05:49:37.492Z,98916
2017-12-10T05:54:39.712Z,98908
2017-12-10T05:59:41.211Z,98883
2017-12-10T06:04:42.698Z,98854
2017-12-10T06:09:44.210Z,98828
2017-12-10T06:14:45.780Z,98817
2017-12-10T06:19:48.018Z,98806
2017-12-10T06:24:50.285Z,98780
2017-12-10T06:29:51.788Z,98757
2017-12-10T06:34:54.056Z,98738
2017-12-10T06:39:55.539Z,98730
2017-12-10T06:44:57.874Z,98698
2017-12-10T06:49:59.454Z,98684
2017-12-10T06:55:00.945Z,98658
2017-12-10T07:00:02.460Z,98666
2017-12-10T07:05:03.966Z,98656
2017-12-10T07:10:05.469Z,98654
2017-12-10T07:15:06.997Z,98656
2017-12-10T07:20:08.531Z,98643
2017-12-10T07:25:10.061Z,98622
2017-12-10T07:30:12.386Z,98592
2017-12-10T07:35:14.082Z,98582
2017-12-10T07:40:15.669Z,98562
2017-12-10T07:45:17.196Z,98545
2017-12-10T07:50:18.694Z,98513
2017-12-10T07:55:20.234Z,98509
2017-12-10T08:00:21.761Z,98485
2017-12-10T08:05:23.994Z,98461
2017-12-10T08:10:25.494Z,98435
2017-12-10T08:15:27.825Z,98406
2017-12-10T08:20:29.368Z,98407
2017-12-10T08:25:30.900Z,98373
2017-12-10T08:30:32.488Z,98360
2017-12-10T08:35:34.770Z,98333
2017-12-10T08:40:37.106Z,98306
2017-12-10T08:45:41.218Z,98307
2017-12-10T08:50:42.788Z,98274
2017-12-10T08:55:44.298Z,98246
2017-12-10T09:00:45.822Z,98197
2017-12-10T09:05:47.321Z,98181
2017-12-10T09:10:48.883Z,98167
2017-12-10T09:15:50.409Z,98130
2017-12-10T09:20:51.919Z,98115
2017-12-10T09:25:53.476Z,98086
2017-12-10T09:30:55.063Z,98074
2017-12-10T09:35:56.592Z,98025
2017-12-10T09:40:58.155Z,98022
2017-12-10T09:45:59.664Z,97997
2017-12-10T09:51:01.214Z,97971
2017-12-10T09:56:02.731Z,97966
2017-12-10T10:01:05.014Z,97948
2017-12-10T10:06:07.271Z,97914
2017-12-10T10:11:08.833Z,97879
2017-12-10T10:16:10.339Z,97846
2017-12-10T10:21:12.594Z,97788
2017-12-10T10:26:14.091Z,97770
2017-12-10T10:31:16.372Z,97728
2017-12-10T10:36:18.697Z,97697
2017-12-10T10:41:20.220Z,97666
2017-12-10T10:46:22.522Z,97626
2017-12-10T10:51:24.118Z,97600
2017-12-10T10:56:25.744Z,97596
2017-12-10T11:01:28.034Z,97555
2017-12-10T11:06:30.306Z,97525
2017-12-10T11:11:31.814Z,97499
2017-12-10T11:16:33.408Z,97472
2017-12-10T11:21:34.953Z,97447
2017-12-10T11:26:36.493Z,97427
2017-12-10T11:31:38.790Z,97424
2017-12-10T11:36:40.316Z,97413
2017-12-10T11:41:41.869Z,97394
2017-12-10T11:46:43.482Z,97385
2017-12-10T11:51:45.753Z,97344
2017-12-10T11:56:47.274Z,97370
2017-12-10T12:01:48.984Z,97353
2017-12-10T12:06:50.530Z,97353
2017-12-10T12:11:52.060Z,97326
2017-12-10T12:16:53.581Z,97325
2017-12-10T12:21:55.123Z,97285
2017-12-10T12:26:56.710Z,97249
2017-12-10T12:31:58.242Z,97191
2017-12-10T12:36:59.749Z,97175
2017-12-10T12:42:01.297Z,97153
2017-12-10T12:47:02.907Z,97137
2017-12-10T12:52:05.192Z,97140
2017-12-10T12:57:07.381Z,97134
2017-12-10T13:02:09.655Z,97116
2017-12-10T13:07:11.573Z,97116
2017-12-10T13:12:13.104Z,97120
2017-12-10T13:17:15.394Z,97127
2017-12-10T13:22:16.974Z,97106
2017-12-10T13:27:18.592Z,97093
2017-12-10T13:32:20.122Z,97066
2017-12-10T13:37:21.688Z,97065
2017-12-10T13:42:23.232Z,97064
2017-12-10T13:47:25.572Z,97065
2017-12-10T13:52:27.134Z,97067
2017-12-10T13:57:28.739Z,97053
2017-12-10T14:02:30.427Z,97039
2017-12-10T14:07:32.786Z,97057
2017-12-10T14:12:34.301Z,97044
2017-12-10T14:17:35.848Z,97037
2017-12-10T14:22:38.125Z,97035
2017-12-10T14:27:39.625Z,97042
2017-12-10T14:32:48.194Z,97053
2017-12-10T14:37:49.756Z,97041
2017-12-10T14:42:51.315Z,97047
2017-12-10T14:47:52.877Z,97035
2017-12-10T14:52:54.421Z,97027
2017-12-10T14:57:55.901Z,97015
2017-12-10T15:02:57.591Z,97034
2017-12-10T15:07:59.250Z,97037
2017-12-10T15:13:00.881Z,97022
2017-12-10T15:18:02.434Z,97051
2017-12-10T15:23:03.974Z,97035
2017-12-10T15:28:05.512Z,97046
2017-12-10T15:33:07.063Z,97058
2017-12-10T15:38:09.318Z,97045
2017-12-10T15:43:10.887Z,97046
2017-12-10T15:48:12.422Z,97032
2017-12-10T15:53:14.041Z,97051
2017-12-10T15:58:15.666Z,97032
2017-12-10T16:03:17.194Z,97048
2017-12-10T16:08:19.586Z,97041
2017-12-10T16:13:21.124Z,97034
2017-12-10T16:18:22.647Z,97031
2017-12-10T16:23:24.110Z,97010
2017-12-10T16:28:25.624Z,97012
2017-12-10T16:33:27.167Z,96990
2017-12-10T16:38:28.705Z,97015
2017-12-10T16:43:30.332Z,96988
2017-12-10T16:48:32.816Z,96993
2017-12-10T16:53:34.302Z,96985
2017-12-10T16:58:36.534Z,96993
2017-12-10T17:03:38.065Z,97005
2017-12-10T17:08:39.643Z,96988
2017-12-10T17:13:41.320Z,96991
2017-12-10T17:18:42.810Z,96984
2017-12-10T17:23:44.305Z,96985
2017-12-10T17:28:45.850Z,96985
2017-12-10T17:33:47.379Z,96966
2017-12-10T17:38:48.884Z,96968
2017-12-10T17:43:50.449Z,96960
2017-12-10T17:48:52.057Z,96955
2017-12-10T17:53:54.435Z,96964
2017-12-10T17:58:56.030Z,96981
2017-12-10T18:03:57.758Z,96975
2017-12-10T18:08:59.319Z,96979
2017-12-10T18:14:00.944Z,96988
2017-12-10T18:19:02.606Z,96993
2017-12-10T18:24:05.115Z,96983
2017-12-10T18:29:06.678Z,97000
2017-12-10T18:34:08.309Z,96991
2017-12-10T18:39:10.018Z,96983
2017-12-10T18:44:11.777Z,96977
2017-12-10T18:49:13.389Z,96970
2017-12-10T18:54:14.941Z,96975
2017-12-10T18:59:16.811Z,96965
2017-12-10T19:04:18.459Z,96957
2017-12-10T19:09:20.964Z,96971
2017-12-10T19:14:22.795Z,96977
2017-12-10T19:19:24.459Z,96962
2017-12-10T19:24:26.076Z,96976
2017-12-10T19:29:27.671Z,96972
2017-12-10T19:34:29.270Z,96966
2017-12-10T19:39:30.860Z,96958
2017-12-10T19:44:32.472Z,96938
2017-12-10T19:49:34.152Z,96940
2017-12-10T19:54:35.767Z,96944
2017-12-10T19:59:37.369Z,96933
2017-12-10T20:04:39.099Z,96926
2017-12-10T20:09:41.406Z,96919
2017-12-10T20:14:43.822Z,96905
2017-12-10T20:19:45.403Z,96900
2017-12-10T20:24:46.974Z,96885
2017-12-10T20:29:48.555Z,96898
2017-12-10T20:34:50.146Z,96888
2017-12-10T20:39:51.681Z,96892
2017-12-10T20:44:53.250Z,96891
2017-12-10T20:49:54.799Z,96877
2017-12-10T20:54:56.371Z,96872
2017-12-10T20:59:57.848Z,96858
2017-12-10T21:04:59.425Z,96862
2017-12-10T21:10:00.971Z,96856
2017-12-10T21:15:02.641Z,96864
2017-12-10T21:20:04.253Z,96857
2017-12-10T21:25:05.858Z,96834
2017-12-10T21:30:07.413Z,96830
2017-12-10T21:35:09.030Z,96839
2017-12-10T21:40:10.544Z,96850
2017-12-10T21:45:12.360Z,96898
2017-12-10T21:50:13.923Z,96920
2017-12-10T21:55:15.452Z,96948
2017-12-10T22:00:17.038Z,96977
2017-12-10T22:05:19.236Z,97004
2017-12-10T22:10:20.684Z,97008
2017-12-10T22:15:23.032Z,97016
2017-12-10T22:20:24.577Z,97015
2017-12-10T22:25:26.070Z,96987
2017-12-10T22:30:27.555Z,97034
2017-12-10T22:35:36.139Z,97042
2017-12-10T22:40:37.620Z,97045
2017-12-10T22:45:39.361Z,97040
2017-12-10T22:50:41.656Z,97053
2017-12-10T22:55:43.193Z,97064
2017-12-10T23:00:44.724Z,97077
2017-12-10T23:05:46.377Z,97090
2017-12-10T23:10:47.907Z,97095
2017-12-10T23:15:50.306Z,97107
2017-12-10T23:20:52.590Z,97119
2017-12-10T23:25:54.890Z,97121
2017-12-10T23:30:56.410Z,97123
2017-12-10T23:35:57.913Z,97111
2017-12-10T23:41:00.133Z,97118
2017-12-10T23:46:01.636Z,97110
2017-12-10T23:51:03.135Z,97117
2017-12-10T23:56:04.649Z,97119
